NCAR-RAP Real-Time Weather Data

Output produced by METARs form (10 April 2020  07:25 UTC)
found at http://weather.rap.ucar.edu/surface/
 
KDAY 100656Z 29015KT 10SM FEW110 02/M02 A2984 RMK AO2 SLP109 T00171017